Milwaukee, Wisconsin
Traffic Map
Current Weather Conditions
Milwaukee, Wisconsin
Few Clouds
Few Clouds
19°
Feels Like: 9°
Wind Chill: Ceiling: Unl
Heat Index: 19° Visibility: 10mi
Dew Point: -1° Wind: 8mph
Humidity: 42% Direction: 290° (WNW)
Pressure: 30.26in Gusts: 0mph
Raw Report DataKMKE 112052Z 29007KT 10SM FEW250 M07/M18 A3026 RMK AO2 SLP263 T10721183 56015
Traffic Incident Summary
Active as of:
Severity:
Category:
InformationThere was an issue retrieving the traffic information for this location. Please try a different location or try again shortly.
Advertisements
Track Severe Weather on mobile